Time;durP1;ratioP1;P1;durP2;ratioP2;P2;SDS_P1;SDS_P2;PMS_P1;PMS_P2;Temp;Humidity;BMP_temperature;BMP_pressure;BME280_temperature;BME280_humidity;BME280_pressure;Samples;Min_cycle;Max_cycle;Signal;HPM_P1;HPM_P2
2021/08/06 00:00:45;;;;;;;1.30;0.20;;;14.80;94.10;;;;;;5095490;28;20458;-84
2021/08/06 00:03:12;;;;;;;1.25;0.20;;;14.60;93.80;;;;;;5072373;28;20487;-82
2021/08/06 00:05:39;;;;;;;0.20;0.20;;;14.60;93.40;;;;;;5087375;28;20404;-83
2021/08/06 00:08:06;;;;;;;0.20;0.20;;;14.50;93.50;;;;;;5092746;28;20483;-82
2021/08/06 00:10:33;;;;;;;0.40;0.20;;;14.40;95.20;;;;;;5092050;28;20395;-82
2021/08/06 00:13:00;;;;;;;0.88;0.22;;;14.30;94.80;;;;;;5096131;28;20962;-82
2021/08/06 00:15:27;;;;;;;0.60;0.20;;;14.30;93.20;;;;;;5091820;28;20467;-83
2021/08/06 00:17:54;;;;;;;1.50;0.10;;;14.30;94.40;;;;;;5094383;28;20887;-84
2021/08/06 00:20:21;;;;;;;0.95;0.20;;;14.30;93.50;;;;;;5085774;28;20390;-84
2021/08/06 00:22:49;;;;;;;0.20;0.20;;;14.30;94.00;;;;;;5094275;28;20392;-84
2021/08/06 00:25:16;;;;;;;0.70;0.20;;;14.30;93.50;;;;;;5087405;28;20950;-83
2021/08/06 00:27:43;;;;;;;0.73;0.20;;;14.30;94.10;;;;;;5093069;28;20424;-83
2021/08/06 00:30:11;;;;;;;0.50;0.10;;;14.30;93.90;;;;;;5094452;28;20393;-83
2021/08/06 00:32:38;;;;;;;0.40;0.20;;;14.30;93.90;;;;;;5088514;28;20424;-83
2021/08/06 00:35:08;;;;;;;0.22;0.20;;;14.40;93.90;;;;;;5095638;28;20475;-82
2021/08/06 00:37:35;;;;;;;1.60;0.20;;;14.50;94.50;;;;;;5097401;28;20416;-83
2021/08/06 00:40:02;;;;;;;1.15;0.30;;;14.40;94.70;;;;;;5096353;28;20564;-84
2021/08/06 00:42:29;;;;;;;1.50;0.30;;;14.50;93.70;;;;;;5093410;28;20404;-82
2021/08/06 00:44:57;;;;;;;1.73;0.30;;;14.50;95.10;;;;;;5093105;28;20455;-83
2021/08/06 00:47:24;;;;;;;0.28;0.20;;;14.60;94.20;;;;;;5086769;28;20517;-81
2021/08/06 00:49:51;;;;;;;0.60;0.45;;;14.60;94.40;;;;;;5071529;28;20386;-84
2021/08/06 00:52:18;;;;;;;0.50;0.28;;;14.70;94.60;;;;;;5077209;28;20452;-84
2021/08/06 00:54:46;;;;;;;1.40;0.30;;;14.70;94.10;;;;;;5073201;28;20412;-84
2021/08/06 00:57:14;;;;;;;0.40;0.30;;;14.70;93.70;;;;;;5070933;28;20496;-83
2021/08/06 00:59:41;;;;;;;2.00;0.37;;;14.70;94.50;;;;;;5064143;28;20588;-84
2021/08/06 01:02:19;;;;;;;1.70;0.30;;;14.80;94.40;;;;;;5072175;28;20837;-85
2021/08/06 01:05:02;;;;;;;0.68;0.28;;;14.70;94.40;;;;;;5079082;28;20424;-83
2021/08/06 01:08:14;;;;;;;1.87;0.47;;;14.80;93.90;;;;;;5070137;28;20440;-82
2021/08/06 01:10:46;;;;;;;1.55;0.45;;;14.80;93.00;;;;;;5033431;28;20727;-82
2021/08/06 01:13:17;;;;;;;0.22;0.22;;;14.90;93.30;;;;;;5076179;28;20502;-82
2021/08/06 01:15:51;;;;;;;1.58;0.30;;;14.90;93.10;;;;;;5070599;28;20822;-81
2021/08/06 01:18:20;;;;;;;0.73;0.20;;;15.00;92.40;;;;;;5070017;28;20780;-84
2021/08/06 01:20:54;;;;;;;0.20;0.20;;;15.10;93.40;;;;;;5072368;28;20386;-83
2021/08/06 01:23:32;;;;;;;0.50;0.13;;;15.20;94.20;;;;;;5070800;28;20945;-84
2021/08/06 01:26:01;;;;;;;0.20;0.20;;;15.10;92.50;;;;;;5077115;28;20440;-83
2021/08/06 01:28:33;;;;;;;1.40;0.40;;;15.20;92.00;;;;;;5068859;28;20398;-83
2021/08/06 01:31:02;;;;;;;1.65;0.40;;;15.30;93.30;;;;;;5054359;28;20393;-83
2021/08/06 01:33:29;;;;;;;0.70;0.30;;;15.40;93.50;;;;;;5064653;28;20458;-84
2021/08/06 01:35:56;;;;;;;1.17;0.40;;;15.50;93.10;;;;;;5060281;28;20557;-83
2021/08/06 01:38:24;;;;;;;0.65;0.30;;;15.50;91.10;;;;;;5054043;28;20474;-82
2021/08/06 01:41:12;;;;;;;1.67;0.40;;;15.60;92.10;;;;;;5067938;28;20754;-83
2021/08/06 01:44:00;;;;;;;0.90;0.30;;;15.60;91.50;;;;;;5066162;28;20386;-83
2021/08/06 01:46:34;;;;;;;1.30;0.30;;;15.50;90.60;;;;;;5069972;28;20414;-84
2021/08/06 01:49:30;;;;;;;0.47;0.20;;;15.60;91.90;;;;;;5065722;28;20392;-84
2021/08/06 01:52:09;;;;;;;2.42;0.47;;;15.60;92.20;;;;;;5062762;28;20892;-84
2021/08/06 01:54:39;;;;;;;0.53;0.50;;;15.70;92.20;;;;;;5056359;28;20405;-84
2021/08/06 01:57:08;;;;;;;0.73;0.45;;;15.80;92.40;;;;;;5072485;28;20389;-83
2021/08/06 01:59:36;;;;;;;1.30;0.30;;;15.90;91.60;;;;;;5071809;28;20366;-83
2021/08/06 02:02:03;;;;;;;1.45;0.40;;;15.90;91.40;;;;;;5072356;28;20382;-84
2021/08/06 02:04:30;;;;;;;5.28;0.50;;;16.00;91.70;;;;;;5072338;28;20732;-84
2021/08/06 02:06:58;;;;;;;0.70;0.32;;;16.00;90.80;;;;;;5052402;28;20404;-84
2021/08/06 02:09:25;;;;;;;1.60;0.38;;;16.00;91.00;;;;;;5068366;28;20907;-83
2021/08/06 02:11:54;;;;;;;1.58;0.32;;;16.10;90.00;;;;;;5073083;28;20406;-83
2021/08/06 02:14:22;;;;;;;0.35;0.20;;;16.20;90.10;;;;;;5058415;28;20394;-84
2021/08/06 02:16:52;;;;;;;1.17;0.35;;;16.10;86.70;;;;;;5059138;28;20471;-83
2021/08/06 02:19:23;;;;;;;0.40;0.30;;;16.10;88.40;;;;;;5060929;28;20374;-83
2021/08/06 02:21:56;;;;;;;0.60;0.20;;;16.20;87.80;;;;;;5063513;28;20386;-82
2021/08/06 02:24:25;;;;;;;2.13;0.38;;;16.30;90.30;;;;;;5064528;28;20407;-81
2021/08/06 02:26:54;;;;;;;1.80;0.30;;;16.30;90.00;;;;;;5062948;28;20425;-85
2021/08/06 02:29:23;;;;;;;2.35;0.32;;;16.50;89.80;;;;;;5062807;28;20389;-83
2021/08/06 02:31:51;;;;;;;1.38;0.70;;;16.50;86.80;;;;;;5061393;28;20385;-83
2021/08/06 02:34:19;;;;;;;1.20;0.20;;;16.50;85.30;;;;;;5056463;28;20394;-82
2021/08/06 02:36:48;;;;;;;1.52;0.30;;;16.50;86.20;;;;;;5055820;28;20371;-82
2021/08/06 02:39:39;;;;;;;0.70;0.40;;;16.50;85.80;;;;;;5053419;28;20399;-83
2021/08/06 02:42:38;;;;;;;1.05;0.40;;;16.70;86.60;;;;;;5042927;28;20453;-83
2021/08/06 02:45:14;;;;;;;3.40;0.38;;;16.70;86.20;;;;;;5072059;28;20449;-82
2021/08/06 02:48:07;;;;;;;1.60;0.40;;;16.70;87.80;;;;;;5099822;28;20394;-82
2021/08/06 02:50:34;;;;;;;0.30;0.30;;;16.70;86.40;;;;;;5089186;28;21100;-83
2021/08/06 02:53:01;;;;;;;3.47;0.30;;;16.70;87.60;;;;;;5074575;28;20871;-83
2021/08/06 02:55:28;;;;;;;1.40;0.30;;;16.90;85.60;;;;;;5065533;28;20383;-83
2021/08/06 02:57:55;;;;;;;2.22;0.30;;;17.00;83.90;;;;;;5067188;28;20382;-80
2021/08/06 03:00:22;;;;;;;2.05;0.40;;;17.00;83.90;;;;;;5074982;28;20404;-83
2021/08/06 03:02:49;;;;;;;0.47;0.30;;;17.00;85.20;;;;;;5070953;28;20422;-84
2021/08/06 03:05:16;;;;;;;0.50;0.40;;;17.10;84.90;;;;;;5071052;28;20443;-83
2021/08/06 03:07:52;;;;;;;0.90;0.30;;;17.10;84.10;;;;;;5071114;28;20455;-82
2021/08/06 03:10:26;;;;;;;1.20;0.40;;;17.20;84.20;;;;;;5051195;28;20474;-82
2021/08/06 03:12:53;;;;;;;0.65;0.40;;;17.20;81.80;;;;;;5061604;28;20716;-84
2021/08/06 03:15:20;;;;;;;1.40;0.40;;;17.30;83.80;;;;;;5051045;28;20411;-81
2021/08/06 03:17:48;;;;;;;1.40;0.40;;;17.30;82.40;;;;;;5036065;28;20775;-85
2021/08/06 03:20:22;;;;;;;1.88;0.50;;;17.30;84.80;;;;;;5054909;28;20384;-83
2021/08/06 03:22:50;;;;;;;1.50;0.40;;;17.30;81.80;;;;;;5051502;28;20394;-82
2021/08/06 03:25:18;;;;;;;3.35;0.50;;;17.30;83.20;;;;;;5068719;28;20370;-83
2021/08/06 03:27:45;;;;;;;0.50;0.30;;;17.40;82.00;;;;;;5067840;28;20444;-84
2021/08/06 03:30:14;;;;;;;0.90;0.20;;;17.40;82.40;;;;;;5059016;28;20381;-83
2021/08/06 03:32:42;;;;;;;2.10;0.35;;;17.40;82.30;;;;;;5073688;28;20865;-83
2021/08/06 03:35:10;;;;;;;0.40;0.30;;;17.30;83.00;;;;;;5068981;28;20382;-82
2021/08/06 03:37:37;;;;;;;0.80;0.22;;;17.20;81.40;;;;;;5073702;28;20448;-82
2021/08/06 03:40:05;;;;;;;2.65;0.50;;;17.30;82.30;;;;;;5070930;28;20386;-82
2021/08/06 03:42:32;;;;;;;1.30;0.60;;;17.40;80.60;;;;;;5067678;28;20445;-83
2021/08/06 03:44:59;;;;;;;0.93;0.32;;;17.40;81.70;;;;;;5066914;28;20389;-83
2021/08/06 03:47:26;;;;;;;1.88;0.65;;;17.50;82.40;;;;;;5071495;28;20413;-84
2021/08/06 03:49:58;;;;;;;1.00;0.60;;;17.50;80.70;;;;;;5067696;28;20760;-83
2021/08/06 03:52:25;;;;;;;0.73;0.70;;;17.60;79.80;;;;;;5068449;28;20386;-81
2021/08/06 03:54:56;;;;;;;1.70;0.60;;;17.60;78.90;;;;;;5067229;28;20480;-82
2021/08/06 03:57:23;;;;;;;0.75;0.60;;;17.60;79.70;;;;;;5068528;28;20384;-82
2021/08/06 03:59:50;;;;;;;0.70;0.40;;;17.60;81.20;;;;;;5066828;28;20408;-83
2021/08/06 04:02:17;;;;;;;0.82;0.30;;;17.60;79.40;;;;;;5069029;28;20428;-83
2021/08/06 04:04:44;;;;;;;0.90;0.50;;;17.60;80.90;;;;;;5068214;28;20405;-84
2021/08/06 04:07:11;;;;;;;2.25;0.30;;;17.60;79.40;;;;;;5066177;28;20459;-83
2021/08/06 04:09:38;;;;;;;0.38;0.38;;;17.60;79.70;;;;;;5069186;28;20872;-83
2021/08/06 04:12:05;;;;;;;2.88;0.30;;;17.60;80.70;;;;;;5062724;28;20401;-84
2021/08/06 04:14:35;;;;;;;2.08;0.40;;;17.70;81.70;;;;;;5066929;28;20451;-83
2021/08/06 04:17:05;;;;;;;0.93;0.20;;;17.70;80.90;;;;;;5064156;28;20376;-84
2021/08/06 04:19:32;;;;;;;0.30;0.22;;;17.60;79.60;;;;;;5048435;28;20416;-84
2021/08/06 04:22:01;;;;;;;0.47;0.20;;;17.70;78.40;;;;;;5068565;28;20390;-83
2021/08/06 04:24:28;;;;;;;1.00;0.30;;;17.70;78.40;;;;;;5068548;28;20397;-84
2021/08/06 04:26:55;;;;;;;0.70;0.50;;;17.70;79.60;;;;;;5069374;28;20485;-84
2021/08/06 04:29:23;;;;;;;2.63;0.45;;;17.70;80.00;;;;;;5056488;28;20854;-83
2021/08/06 04:31:57;;;;;;;0.70;0.40;;;17.70;79.40;;;;;;5060258;28;20378;-82
2021/08/06 04:34:24;;;;;;;0.77;0.50;;;17.80;80.00;;;;;;5062150;28;20464;-82
2021/08/06 04:36:53;;;;;;;0.80;0.40;;;17.70;80.80;;;;;;5067854;28;20390;-82
2021/08/06 04:39:21;;;;;;;1.00;0.40;;;17.70;81.40;;;;;;5068303;28;20389;-82
2021/08/06 04:41:49;;;;;;;3.80;0.30;;;17.60;81.40;;;;;;5068244;28;20374;-84
2021/08/06 04:44:19;;;;;;;1.20;0.30;;;17.60;81.60;;;;;;5055280;28;20386;-83
2021/08/06 04:46:46;;;;;;;0.60;0.30;;;17.50;81.70;;;;;;5067098;28;20414;-83
2021/08/06 04:49:14;;;;;;;1.15;0.22;;;17.50;81.00;;;;;;5066531;28;20466;-82
2021/08/06 04:51:41;;;;;;;1.80;0.52;;;17.50;81.30;;;;;;5065419;28;20404;-82
2021/08/06 04:54:08;;;;;;;8.65;2.40;;;17.50;82.20;;;;;;5062231;28;20383;-82
2021/08/06 04:56:35;;;;;;;7.78;5.05;;;17.50;81.20;;;;;;5060890;28;20429;-82
2021/08/06 04:59:02;;;;;;;2.57;0.80;;;17.60;81.90;;;;;;5061114;28;20445;-81
2021/08/06 05:01:31;;;;;;;4.60;0.57;;;17.60;80.60;;;;;;5062197;28;21257;-84
2021/08/06 05:03:58;;;;;;;3.45;0.55;;;17.60;78.70;;;;;;5060491;28;20457;-83
2021/08/06 05:06:24;;;;;;;3.80;0.70;;;17.60;81.00;;;;;;5037717;28;20480;-83
2021/08/06 05:08:51;;;;;;;53.10;3.72;;;17.60;81.10;;;;;;5050072;28;20376;-85
2021/08/06 05:11:18;;;;;;;2.90;0.45;;;17.50;81.30;;;;;;5051168;28;20406;-84
2021/08/06 05:13:45;;;;;;;3.40;0.57;;;17.50;80.70;;;;;;5050874;28;20380;-85
2021/08/06 05:16:13;;;;;;;0.85;0.40;;;17.50;81.50;;;;;;5076203;28;20382;-83
2021/08/06 05:18:40;;;;;;;2.72;0.32;;;17.50;80.40;;;;;;5069463;28;20431;-84
2021/08/06 05:21:07;;;;;;;4.00;0.50;;;17.50;80.00;;;;;;5070796;28;20473;-83
2021/08/06 05:23:34;;;;;;;31.53;3.03;;;17.50;81.20;;;;;;5063029;28;20373;-86
2021/08/06 05:26:01;;;;;;;10.82;1.10;;;17.40;82.10;;;;;;5042647;28;20821;-82
2021/08/06 05:28:28;;;;;;;5.20;0.63;;;17.40;82.80;;;;;;5062467;28;20405;-83
2021/08/06 05:30:55;;;;;;;2.85;0.55;;;17.40;83.10;;;;;;5075554;28;20358;-84
2021/08/06 05:33:22;;;;;;;0.93;0.40;;;17.40;83.70;;;;;;5073321;28;20382;-81
2021/08/06 05:35:50;;;;;;;1.30;0.60;;;17.30;81.90;;;;;;5075094;28;20385;-84
2021/08/06 05:38:17;;;;;;;1.10;0.57;;;17.30;83.90;;;;;;5090803;28;20393;-83
2021/08/06 05:40:44;;;;;;;1.80;0.57;;;17.30;83.30;;;;;;5074154;28;20417;-83
2021/08/06 05:43:11;;;;;;;0.60;0.60;;;17.30;83.50;;;;;;5074387;28;20943;-83
2021/08/06 05:45:38;;;;;;;0.68;0.57;;;17.30;83.50;;;;;;5090704;28;20451;-81
2021/08/06 05:48:08;;;;;;;1.80;0.50;;;17.30;82.20;;;;;;5072795;28;20406;-83
2021/08/06 05:50:40;;;;;;;1.02;0.50;;;17.30;82.60;;;;;;5064689;28;20387;-82
2021/08/06 05:53:08;;;;;;;0.95;0.57;;;17.30;80.80;;;;;;5052106;28;20465;-83
2021/08/06 05:55:35;;;;;;;1.30;0.60;;;17.30;82.30;;;;;;5051797;28;20380;-81
2021/08/06 05:58:02;;;;;;;0.60;0.40;;;17.20;83.20;;;;;;5056234;28;20746;-80
2021/08/06 06:00:29;;;;;;;0.68;0.50;;;17.20;83.00;;;;;;5067545;28;20467;-81
2021/08/06 06:02:56;;;;;;;0.65;0.43;;;17.10;84.20;;;;;;5069815;28;20390;-82
2021/08/06 06:05:23;;;;;;;1.25;0.65;;;17.00;85.00;;;;;;5057424;28;20388;-82
2021/08/06 06:07:50;;;;;;;1.80;0.60;;;16.90;85.40;;;;;;5075310;28;20911;-83
2021/08/06 06:10:22;;;;;;;2.40;0.60;;;16.90;85.50;;;;;;5069534;28;20458;-82
2021/08/06 06:12:51;;;;;;;1.00;0.60;;;16.80;86.40;;;;;;5070716;28;20378;-83
2021/08/06 06:15:18;;;;;;;1.42;0.70;;;16.70;87.10;;;;;;5069787;28;20398;-84
2021/08/06 06:17:46;;;;;;;1.13;0.57;;;16.70;87.50;;;;;;5070722;28;20439;-83
2021/08/06 06:20:14;;;;;;;6.90;0.80;;;16.60;88.30;;;;;;5069574;28;20481;-83
2021/08/06 06:22:41;;;;;;;5.80;0.50;;;16.60;87.80;;;;;;5067089;28;20394;-82
2021/08/06 06:25:09;;;;;;;4.38;0.73;;;16.50;87.60;;;;;;5066140;28;20497;-82
2021/08/06 06:27:49;;;;;;;2.10;0.60;;;16.50;86.70;;;;;;5071794;28;20398;-83
2021/08/06 06:30:16;;;;;;;0.90;0.60;;;16.50;87.30;;;;;;5067747;28;20409;-82
2021/08/06 06:32:44;;;;;;;1.63;0.50;;;16.50;89.40;;;;;;5065893;28;20957;-84
2021/08/06 06:35:11;;;;;;;1.40;0.63;;;16.40;88.20;;;;;;5068992;28;20390;-83
2021/08/06 06:37:38;;;;;;;0.97;0.70;;;16.40;87.70;;;;;;5069024;28;20918;-81
2021/08/06 06:40:05;;;;;;;0.80;0.60;;;16.30;88.40;;;;;;5069268;28;20424;-83
2021/08/06 06:42:33;;;;;;;0.70;0.63;;;16.30;88.00;;;;;;5067411;28;20776;-83
2021/08/06 06:44:59;;;;;;;0.63;0.50;;;16.30;88.30;;;;;;5065865;28;20412;-84
2021/08/06 06:47:34;;;;;;;1.97;0.70;;;16.20;89.60;;;;;;5075290;28;20801;-82
2021/08/06 06:50:01;;;;;;;1.05;0.50;;;16.10;90.20;;;;;;5090077;28;20399;-83
2021/08/06 06:52:28;;;;;;;0.55;0.55;;;16.00;90.60;;;;;;5087880;28;20823;-83
2021/08/06 06:54:55;;;;;;;1.63;0.55;;;16.00;90.70;;;;;;5089011;28;20396;-82
2021/08/06 06:57:22;;;;;;;4.20;0.60;;;15.90;91.00;;;;;;5089689;28;20393;-83
2021/08/06 06:59:48;;;;;;;1.20;0.77;;;15.80;91.60;;;;;;5085774;28;20498;-82
2021/08/06 07:02:15;;;;;;;1.42;1.00;;;15.70;91.70;;;;;;5090125;28;20395;-83
2021/08/06 07:04:42;;;;;;;1.38;1.20;;;15.60;91.80;;;;;;5087288;28;20404;-83
2021/08/06 07:07:11;;;;;;;1.80;1.60;;;15.50;92.70;;;;;;5090524;28;20404;-81
2021/08/06 07:09:40;;;;;;;3.72;1.50;;;15.40;93.20;;;;;;5093848;28;20375;-82
2021/08/06 07:12:07;;;;;;;2.00;1.80;;;15.30;93.50;;;;;;5066115;28;20409;-83
2021/08/06 07:14:36;;;;;;;2.30;2.10;;;15.20;94.10;;;;;;5080989;28;20398;-83
2021/08/06 07:17:03;;;;;;;4.50;3.30;;;15.10;94.60;;;;;;5071526;28;20467;-82
2021/08/06 07:19:30;;;;;;;3.40;1.60;;;15.00;94.70;;;;;;5089187;28;20392;-82
2021/08/06 07:21:57;;;;;;;3.17;1.50;;;14.90;95.10;;;;;;5087575;28;20426;-82
2021/08/06 07:24:24;;;;;;;1.17;0.98;;;14.90;95.70;;;;;;5086695;28;20389;-81
2021/08/06 07:26:51;;;;;;;2.63;1.00;;;14.80;96.10;;;;;;5086188;28;20411;-83
2021/08/06 07:29:18;;;;;;;1.50;1.05;;;14.70;96.10;;;;;;5087938;28;20387;-83
2021/08/06 07:31:45;;;;;;;2.38;0.90;;;14.60;96.70;;;;;;5087158;28;20439;-82
2021/08/06 07:34:12;;;;;;;2.40;1.10;;;14.50;97.20;;;;;;5086269;28;20380;-83
2021/08/06 07:36:39;;;;;;;2.37;0.93;;;14.40;97.50;;;;;;5089830;28;20399;-82
2021/08/06 07:39:06;;;;;;;1.20;0.80;;;14.40;97.60;;;;;;5089272;28;20384;-83
2021/08/06 07:41:33;;;;;;;1.25;0.98;;;14.30;98.10;;;;;;5088591;28;20485;-82
2021/08/06 07:44:00;;;;;;;4.32;1.13;;;14.30;98.30;;;;;;5089829;28;20481;-83
2021/08/06 07:46:27;;;;;;;5.10;1.90;;;14.20;98.30;;;;;;5089146;28;20886;-83
2021/08/06 07:48:54;;;;;;;3.25;1.85;;;14.20;98.70;;;;;;5068191;28;20409;-83
2021/08/06 07:51:21;;;;;;;3.08;1.30;;;14.20;98.60;;;;;;5068896;28;20457;-83
2021/08/06 07:53:48;;;;;;;1.50;1.23;;;14.10;98.80;;;;;;5059615;28;20387;-82
2021/08/06 07:56:16;;;;;;;2.72;1.38;;;14.10;98.90;;;;;;5065914;28;20401;-82
2021/08/06 07:58:43;;;;;;;2.35;1.40;;;14.00;99.40;;;;;;5054701;28;20832;-83
2021/08/06 08:01:10;;;;;;;2.80;1.30;;;14.00;99.20;;;;;;5051564;28;20388;-82
2021/08/06 08:03:37;;;;;;;3.37;1.50;;;13.90;99.50;;;;;;5062581;28;20447;-85
2021/08/06 08:06:04;;;;;;;5.43;1.60;;;13.90;99.20;;;;;;5067397;28;20414;-84
2021/08/06 08:08:32;;;;;;;3.53;1.70;;;13.90;99.60;;;;;;5069199;28;20393;-85
2021/08/06 08:10:59;;;;;;;3.70;2.17;;;13.80;99.90;;;;;;5071188;28;20378;-84
2021/08/06 08:13:26;;;;;;;3.40;1.60;;;13.80;99.90;;;;;;5073023;28;20944;-84
2021/08/06 08:15:53;;;;;;;3.50;1.63;;;13.70;99.90;;;;;;5066463;28;20390;-81
2021/08/06 08:18:20;;;;;;;2.60;1.23;;;13.70;99.90;;;;;;5059110;28;20722;-83
2021/08/06 08:20:48;;;;;;;2.40;1.40;;;13.70;99.90;;;;;;5056959;28;20385;-82
2021/08/06 08:23:16;;;;;;;2.83;1.50;;;13.60;99.90;;;;;;5061234;28;20807;-82
2021/08/06 08:25:47;;;;;;;6.57;1.60;;;13.60;99.90;;;;;;5060946;28;20399;-82
2021/08/06 08:28:14;;;;;;;2.50;1.70;;;13.60;99.90;;;;;;5065035;28;20402;-83
2021/08/06 08:30:41;;;;;;;2.88;1.98;;;13.50;99.90;;;;;;5064460;28;20417;-82
2021/08/06 08:33:08;;;;;;;2.63;2.00;;;13.50;99.90;;;;;;5063063;28;20397;-81
2021/08/06 08:35:35;;;;;;;4.78;1.95;;;13.50;99.90;;;;;;5067291;28;20488;-82
2021/08/06 08:41:24;;;;;;;4.68;2.85;;;13.40;99.90;;;;;;5063715;28;20389;-82
2021/08/06 08:43:52;;;;;;;6.33;3.50;;;13.30;99.90;;;;;;5067636;28;20382;-80
2021/08/06 08:46:21;;;;;;;5.45;3.58;;;13.30;99.90;;;;;;5060605;28;20406;-80
2021/08/06 08:48:53;;;;;;;6.13;3.88;;;13.20;99.90;;;;;;5067172;28;20870;-79
2021/08/06 08:51:20;;;;;;;6.00;4.27;;;13.10;99.90;;;;;;5050869;28;21022;-80
2021/08/06 08:53:47;;;;;;;4.85;3.70;;;13.00;99.90;;;;;;5044764;28;20409;-81
2021/08/06 08:56:14;;;;;;;4.47;3.63;;;12.90;99.90;;;;;;5064998;28;20484;-80
2021/08/06 08:58:41;;;;;;;4.03;3.10;;;12.80;99.90;;;;;;5065550;28;20398;-80
2021/08/06 09:01:09;;;;;;;3.97;3.05;;;12.60;99.90;;;;;;5071281;28;20401;-79
2021/08/06 09:03:40;;;;;;;4.25;2.80;;;12.60;99.90;;;;;;5069262;28;20745;-80
2021/08/06 09:06:08;;;;;;;5.47;3.00;;;12.50;99.90;;;;;;5065619;28;20416;-80
2021/08/06 09:08:36;;;;;;;4.47;2.72;;;12.50;99.90;;;;;;5061886;28;20394;-80
2021/08/06 09:11:24;;;;;;;3.45;2.20;;;12.40;99.90;;;;;;5070174;28;20907;-80
2021/08/06 09:13:51;;;;;;;3.08;2.50;;;12.40;99.90;;;;;;5069453;28;20757;-79
2021/08/06 09:16:19;;;;;;;5.00;2.08;;;12.40;99.90;;;;;;5066012;28;20435;-80
2021/08/06 09:18:46;;;;;;;3.00;2.35;;;12.40;99.90;;;;;;5066128;28;20382;-80
2021/08/06 09:21:17;;;;;;;5.22;2.05;;;12.40;99.90;;;;;;5050998;28;20915;-81
2021/08/06 09:23:54;;;;;;;4.18;2.42;;;12.30;99.90;;;;;;5069973;28;20386;-81
2021/08/06 09:26:28;;;;;;;4.45;2.38;;;12.30;99.90;;;;;;5060646;28;20492;-81
2021/08/06 09:29:12;;;;;;;4.30;2.30;;;12.20;99.90;;;;;;5074063;28;20385;-79
2021/08/06 09:31:54;;;;;;;3.58;2.13;;;12.20;99.90;;;;;;5069505;28;20390;-78
2021/08/06 09:34:30;;;;;;;3.87;1.97;;;12.10;99.90;;;;;;5062223;28;20394;-80
2021/08/06 09:37:11;;;;;;;2.63;2.30;;;12.10;99.90;;;;;;5063543;28;20426;-80
2021/08/06 09:39:47;;;;;;;2.53;2.30;;;12.10;99.90;;;;;;5059202;28;20378;-79
2021/08/06 09:42:29;;;;;;;2.92;2.30;;;12.00;99.90;;;;;;5045504;28;20409;-80
2021/08/06 09:45:16;;;;;;;3.87;3.10;;;12.00;99.90;;;;;;5066767;28;20978;-79
2021/08/06 09:47:57;;;;;;;2.75;2.13;;;11.90;99.90;;;;;;5056912;28;20423;-79
2021/08/06 09:50:31;;;;;;;3.08;2.33;;;11.70;99.90;;;;;;5081564;28;20404;-80
2021/08/06 09:52:59;;;;;;;3.03;1.95;;;11.70;99.90;;;;;;5081676;28;20427;-79
2021/08/06 09:55:31;;;;;;;3.20;1.97;;;11.70;99.90;;;;;;5079923;28;20479;-80
2021/08/06 09:58:00;;;;;;;4.05;2.40;;;11.70;99.90;;;;;;5081219;28;20413;-80
2021/08/06 10:00:28;;;;;;;2.88;2.00;;;11.70;99.90;;;;;;5072469;28;20374;-80
2021/08/06 10:02:56;;;;;;;4.20;2.20;;;11.60;99.90;;;;;;5085154;28;20483;-81
2021/08/06 10:05:26;;;;;;;2.83;1.80;;;11.50;99.90;;;;;;5086188;28;20393;-80
2021/08/06 10:07:58;;;;;;;3.97;2.10;;;11.50;99.90;;;;;;5061871;28;20407;-80
2021/08/06 10:10:36;;;;;;;4.88;2.30;;;11.50;99.90;;;;;;5087549;28;20385;-80
2021/08/06 10:13:05;;;;;;;4.03;1.90;;;11.50;99.90;;;;;;5087956;28;20457;-78
2021/08/06 10:15:32;;;;;;;4.37;1.97;;;11.40;99.90;;;;;;5088372;28;20837;-79
2021/08/06 10:18:00;;;;;;;5.13;2.10;;;11.40;99.90;;;;;;5088175;28;20378;-80
2021/08/06 10:20:29;;;;;;;4.25;1.80;;;11.30;99.90;;;;;;5087018;28;20391;-80
2021/08/06 10:22:56;;;;;;;2.92;1.85;;;11.30;99.90;;;;;;5087612;28;20377;-80
2021/08/06 10:25:26;;;;;;;1.70;1.50;;;11.20;99.90;;;;;;5088184;28;20467;-79
2021/08/06 10:27:53;;;;;;;2.55;1.50;;;11.20;99.90;;;;;;5087562;28;20388;-80
2021/08/06 10:30:25;;;;;;;2.80;1.60;;;11.20;99.90;;;;;;5070254;28;20419;-80
2021/08/06 10:33:28;;;;;;;2.60;1.60;;;11.10;99.90;;;;;;5078931;28;20450;-81
2021/08/06 10:36:06;;;;;;;1.92;1.55;;;11.10;99.90;;;;;;5040746;28;20416;-81
2021/08/06 10:38:39;;;;;;;2.75;1.60;;;10.90;99.90;;;;;;5085575;28;20430;-81
2021/08/06 10:41:19;;;;;;;1.42;1.33;;;10.90;99.90;;;;;;5067734;28;20390;-79
2021/08/06 10:44:01;;;;;;;3.28;1.40;;;10.80;99.90;;;;;;5067398;28;20378;-80
2021/08/06 10:46:48;;;;;;;1.77;1.33;;;10.70;99.90;;;;;;5068104;28;20412;-80
2021/08/06 10:49:15;;;;;;;1.70;1.50;;;10.70;99.90;;;;;;5054273;28;20420;-81
2021/08/06 10:51:42;;;;;;;1.63;1.45;;;10.70;99.90;;;;;;5067595;28;20382;-80
2021/08/06 10:54:09;;;;;;;1.77;1.20;;;10.60;99.90;;;;;;5067322;28;20370;-81
2021/08/06 10:56:39;;;;;;;2.23;1.30;;;10.60;99.90;;;;;;5068059;28;20436;-79
2021/08/06 10:59:12;;;;;;;1.88;1.58;;;10.60;99.90;;;;;;5063980;28;20477;-80
2021/08/06 11:01:40;;;;;;;1.48;1.38;;;10.60;99.90;;;;;;5053595;28;20388;-80
2021/08/06 11:04:30;;;;;;;2.30;1.67;;;10.60;99.90;;;;;;5055689;28;20585;-80
2021/08/06 11:07:02;;;;;;;2.72;1.70;;;10.60;99.90;;;;;;5054471;28;20414;-81
2021/08/06 11:09:35;;;;;;;1.83;1.70;;;10.50;99.90;;;;;;5071189;28;20378;-81
2021/08/06 11:12:11;;;;;;;3.40;2.00;;;10.50;99.90;;;;;;5072879;28;20392;-82
2021/08/06 11:14:41;;;;;;;3.10;2.13;;;10.50;99.90;;;;;;5071942;28;20899;-81
2021/08/06 11:17:23;;;;;;;6.50;2.35;;;10.40;99.90;;;;;;5074250;28;20378;-81
2021/08/06 11:19:55;;;;;;;2.25;2.05;;;10.40;99.90;;;;;;5070507;28;20389;-82
2021/08/06 11:22:34;;;;;;;2.28;2.08;;;10.30;99.90;;;;;;5058666;28;21224;-82
2021/08/06 11:25:05;;;;;;;2.03;1.83;;;10.30;99.90;;;;;;5051765;28;20461;-82
2021/08/06 11:27:43;;;;;;;2.10;1.90;;;10.30;99.90;;;;;;5055569;28;20915;-82
2021/08/06 11:30:16;;;;;;;2.25;1.88;;;10.20;99.90;;;;;;5068636;28;20833;-82
2021/08/06 11:32:49;;;;;;;2.23;1.50;;;10.20;99.90;;;;;;5065083;28;20456;-83
2021/08/06 11:35:19;;;;;;;2.60;1.50;;;10.20;99.90;;;;;;5051122;28;20775;-81
2021/08/06 11:37:58;;;;;;;2.22;1.60;;;10.20;99.90;;;;;;5068127;28;20386;-81
2021/08/06 11:40:28;;;;;;;1.48;1.33;;;10.10;99.90;;;;;;5071547;28;20374;-80
2021/08/06 11:42:55;;;;;;;2.50;1.47;;;10.10;99.90;;;;;;5071720;28;20382;-81
2021/08/06 11:45:27;;;;;;;1.73;1.63;;;10.10;99.90;;;;;;5073651;28;20391;-81
2021/08/06 11:48:03;;;;;;;2.38;1.60;;;10.00;99.90;;;;;;5084863;28;20405;-82
2021/08/06 11:50:40;;;;;;;1.70;1.60;;;10.00;99.90;;;;;;5094199;28;20372;-82
2021/08/06 11:53:17;;;;;;;2.78;1.42;;;10.00;99.90;;;;;;5090505;28;20390;-82
2021/08/06 11:55:46;;;;;;;2.70;1.50;;;9.90;99.90;;;;;;5090956;28;20450;-82
2021/08/06 11:58:14;;;;;;;1.30;1.20;;;9.90;99.90;;;;;;5088395;28;20380;-82
2021/08/06 12:00:45;;;;;;;2.90;1.30;;;9.80;99.90;;;;;;5090937;28;20460;-83
2021/08/06 12:03:17;;;;;;;1.80;1.48;;;9.80;99.90;;;;;;5089803;28;21967;-82
2021/08/06 12:06:00;;;;;;;2.30;1.65;;;9.80;99.90;;;;;;5070684;28;20397;-82
2021/08/06 12:08:34;;;;;;;1.50;1.33;;;9.80;99.90;;;;;;5083928;28;20415;-81
2021/08/06 12:11:07;;;;;;;2.10;1.20;;;9.80;99.90;;;;;;5091045;28;20380;-83
2021/08/06 12:13:36;;;;;;;1.52;1.25;;;9.80;99.90;;;;;;5090421;28;20376;-82
2021/08/06 12:16:12;;;;;;;2.13;1.60;;;9.80;99.90;;;;;;5083997;28;20459;-82
2021/08/06 12:18:46;;;;;;;1.73;1.63;;;9.80;99.90;;;;;;5069494;28;20366;-81
2021/08/06 12:21:25;;;;;;;1.60;1.50;;;9.70;99.90;;;;;;5079298;28;20377;-82
2021/08/06 12:24:17;;;;;;;1.83;1.40;;;9.70;99.90;;;;;;5089015;28;20372;-82
2021/08/06 12:26:45;;;;;;;1.60;1.50;;;9.70;99.90;;;;;;5073251;28;20833;-82
2021/08/06 12:29:19;;;;;;;1.58;1.48;;;9.70;99.90;;;;;;5084091;28;20384;-82
2021/08/06 12:32:06;;;;;;;1.52;1.40;;;9.70;99.90;;;;;;5092544;28;20384;-81
2021/08/06 12:34:37;;;;;;;1.65;1.17;;;9.60;99.90;;;;;;5093223;28;20383;-81
2021/08/06 12:37:08;;;;;;;1.92;1.50;;;9.60;99.90;;;;;;5086418;28;20392;-81
2021/08/06 12:39:47;;;;;;;3.55;1.15;;;9.60;99.90;;;;;;5080686;28;20496;-82
2021/08/06 12:42:25;;;;;;;1.40;1.30;;;9.50;99.90;;;;;;5090706;28;20906;-81
2021/08/06 12:45:00;;;;;;;1.73;1.30;;;9.50;99.90;;;;;;5092928;28;20388;-82
2021/08/06 12:47:39;;;;;;;1.50;1.20;;;9.40;99.90;;;;;;5087019;28;20432;-82
2021/08/06 12:50:08;;;;;;;3.33;1.40;;;9.40;99.90;;;;;;5062712;28;20457;-81
2021/08/06 12:52:38;;;;;;;1.92;1.30;;;9.30;99.90;;;;;;5071003;28;20390;-80
2021/08/06 12:55:05;;;;;;;1.30;1.20;;;9.30;99.90;;;;;;5063161;28;20393;-81
2021/08/06 12:57:48;;;;;;;2.22;1.30;;;9.30;99.90;;;;;;5070589;28;20765;-81
2021/08/06 13:00:24;;;;;;;3.17;1.60;;;9.20;99.90;;;;;;5072629;28;20816;-81
2021/08/06 13:03:09;;;;;;;2.25;1.42;;;9.10;99.90;;;;;;5055608;28;20375;-80
2021/08/06 13:06:00;;;;;;;2.15;1.90;;;9.10;99.90;;;;;;5072925;28;20740;-81
2021/08/06 13:08:44;;;;;;;2.58;2.00;;;9.20;99.90;;;;;;5072206;28;20397;-81